Time;durP1;ratioP1;P1;durP2;ratioP2;P2;SDS_P1;SDS_P2;PMS_P1;PMS_P2;Temp;Humidity;BMP_temperature;BMP_pressure;BME280_temperature;BME280_humidity;BME280_pressure;Samples;Min_cycle;Max_cycle;Signal;HPM_P1;HPM_P2
2023/05/05 00:01:26;;;;;;;7.30;5.10;;;15.10;99.90;;;;;;5027222;28;20033;-71
2023/05/05 00:03:52;;;;;;;8.85;4.63;;;15.00;99.90;;;;;;5028414;28;20361;-71
2023/05/05 00:06:18;;;;;;;7.25;4.78;;;15.00;99.90;;;;;;5027379;28;20033;-71
2023/05/05 00:08:43;;;;;;;7.55;4.53;;;15.00;99.90;;;;;;5025815;28;20459;-71
2023/05/05 00:11:09;;;;;;;9.10;4.45;;;14.90;99.90;;;;;;5023261;28;20052;-71
2023/05/05 00:13:35;;;;;;;6.03;4.80;;;15.00;99.90;;;;;;5023801;28;20029;-71
2023/05/05 00:16:01;;;;;;;6.38;4.80;;;15.00;99.90;;;;;;5027707;28;20063;-71
2023/05/05 00:18:27;;;;;;;7.43;4.88;;;15.00;99.90;;;;;;5026303;28;20116;-71
2023/05/05 00:20:52;;;;;;;7.15;5.30;;;14.90;99.90;;;;;;5024676;28;20032;-71
2023/05/05 00:23:19;;;;;;;8.95;4.95;;;15.00;99.90;;;;;;5024667;28;20033;-71
2023/05/05 00:25:45;;;;;;;8.68;4.82;;;14.90;99.90;;;;;;5026193;28;20047;-71
2023/05/05 00:28:12;;;;;;;5.65;4.30;;;14.90;99.90;;;;;;5026436;28;20037;-71
2023/05/05 00:30:39;;;;;;;6.43;4.88;;;14.80;99.90;;;;;;5026687;28;20112;-71
2023/05/05 00:33:05;;;;;;;7.07;4.53;;;14.80;99.90;;;;;;5019996;28;20076;-71
2023/05/05 00:35:31;;;;;;;9.07;5.13;;;14.80;99.90;;;;;;5028697;28;20033;-71
2023/05/05 00:37:57;;;;;;;6.45;4.50;;;14.70;99.90;;;;;;5023948;28;20099;-71
2023/05/05 00:40:24;;;;;;;8.02;4.72;;;14.70;99.90;;;;;;5022241;28;20107;-71
2023/05/05 00:42:49;;;;;;;9.38;5.47;;;14.70;99.90;;;;;;5027025;28;20090;-71
2023/05/05 00:45:17;;;;;;;8.40;5.65;;;14.60;99.90;;;;;;5025682;28;20722;-71
2023/05/05 00:47:50;;;;;;;7.63;4.95;;;14.60;99.90;;;;;;5023813;28;20035;-72
2023/05/05 00:50:28;;;;;;;7.25;4.90;;;14.50;99.90;;;;;;5012408;28;20049;-71
2023/05/05 00:52:57;;;;;;;8.85;5.22;;;14.60;99.90;;;;;;5022112;28;20026;-71
2023/05/05 00:55:23;;;;;;;7.75;5.45;;;14.50;99.90;;;;;;5024181;28;20075;-72
2023/05/05 00:57:49;;;;;;;7.57;4.90;;;14.50;99.90;;;;;;5023376;28;20033;-72
2023/05/05 01:00:16;;;;;;;8.40;4.90;;;14.50;99.90;;;;;;5027977;28;20028;-71
2023/05/05 01:02:43;;;;;;;8.43;5.70;;;14.50;99.90;;;;;;5020701;28;20021;-71
2023/05/05 01:05:09;;;;;;;10.23;6.00;;;14.40;99.90;;;;;;5022894;28;20029;-71
2023/05/05 01:07:52;;;;;;;8.77;5.82;;;14.40;99.90;;;;;;5022872;28;20128;-71
2023/05/05 01:10:35;;;;;;;9.20;5.95;;;14.40;99.90;;;;;;5027383;28;20064;-71
2023/05/05 01:13:40;;;;;;;8.27;5.28;;;14.40;99.90;;;;;;5023616;28;20030;-71
2023/05/05 01:16:15;;;;;;;7.10;5.00;;;14.50;99.90;;;;;;5024392;28;20038;-71
2023/05/05 01:18:47;;;;;;;10.30;5.75;;;14.40;99.90;;;;;;5028554;28;20041;-71
2023/05/05 01:21:26;;;;;;;7.63;5.57;;;14.50;99.90;;;;;;5029817;28;20025;-71
2023/05/05 01:24:14;;;;;;;7.88;5.63;;;14.50;99.90;;;;;;5030606;28;20024;-71
2023/05/05 01:27:01;;;;;;;11.80;6.15;;;14.50;99.90;;;;;;5029476;28;20033;-71
2023/05/05 01:29:55;;;;;;;9.43;5.68;;;14.40;99.90;;;;;;5028487;28;20498;-71
2023/05/05 01:32:30;;;;;;;8.38;6.10;;;14.40;99.90;;;;;;5026512;28;20458;-71
2023/05/05 01:35:05;;;;;;;9.55;6.32;;;14.30;99.90;;;;;;5029004;28;20035;-71
2023/05/05 01:38:09;;;;;;;9.43;6.00;;;14.40;99.90;;;;;;5030611;28;20108;-71
2023/05/05 01:40:41;;;;;;;11.77;6.57;;;14.30;99.90;;;;;;5028837;28;20128;-71
2023/05/05 01:43:10;;;;;;;7.93;5.70;;;14.30;99.90;;;;;;5025597;28;20065;-71
2023/05/05 01:45:40;;;;;;;9.60;5.40;;;14.30;99.90;;;;;;5031436;28;20052;-71
2023/05/05 01:48:07;;;;;;;7.70;5.53;;;14.30;99.90;;;;;;5023871;28;20037;-71
2023/05/05 01:50:34;;;;;;;10.48;6.15;;;14.30;99.90;;;;;;5023574;28;20050;-71
2023/05/05 01:53:02;;;;;;;10.70;6.38;;;14.20;99.90;;;;;;5027654;28;20026;-71
2023/05/05 01:55:29;;;;;;;10.60;6.25;;;14.20;99.90;;;;;;5026583;28;20077;-71
2023/05/05 01:57:57;;;;;;;10.70;6.57;;;14.10;99.90;;;;;;5031700;28;20080;-71
2023/05/05 02:00:24;;;;;;;9.07;6.35;;;14.10;99.90;;;;;;5025424;28;20091;-71
2023/05/05 02:02:52;;;;;;;15.73;7.13;;;14.10;99.90;;;;;;5024295;28;20029;-71
2023/05/05 02:05:20;;;;;;;9.32;6.13;;;14.10;99.90;;;;;;5028664;28;20037;-71
2023/05/05 02:07:48;;;;;;;12.05;6.45;;;14.00;99.90;;;;;;5021199;28;20112;-72
2023/05/05 02:10:14;;;;;;;8.85;5.50;;;14.00;99.90;;;;;;5031213;28;20029;-71
2023/05/05 02:12:44;;;;;;;11.45;6.43;;;13.90;99.90;;;;;;5028284;28;20021;-71
2023/05/05 02:15:10;;;;;;;9.65;6.57;;;13.90;99.90;;;;;;5031611;28;20053;-71
2023/05/05 02:17:39;;;;;;;12.43;6.63;;;13.80;99.90;;;;;;5029991;28;20120;-71
2023/05/05 02:20:06;;;;;;;10.20;6.70;;;13.90;99.90;;;;;;5025124;28;20384;-71
2023/05/05 02:22:32;;;;;;;11.43;6.93;;;13.90;99.90;;;;;;5027874;28;20029;-71
2023/05/05 02:24:58;;;;;;;8.90;6.50;;;13.80;99.90;;;;;;5026773;28;20029;-71
2023/05/05 02:27:25;;;;;;;9.25;5.93;;;13.80;99.90;;;;;;5023499;28;20116;-71
2023/05/05 02:29:56;;;;;;;7.63;5.13;;;13.80;99.90;;;;;;5028640;28;20064;-71
2023/05/05 02:32:34;;;;;;;10.35;6.85;;;13.80;99.90;;;;;;5029523;28;20036;-71
2023/05/05 02:35:08;;;;;;;12.80;6.25;;;13.80;99.90;;;;;;5027860;28;20116;-71
2023/05/05 02:37:35;;;;;;;8.90;5.90;;;13.80;99.90;;;;;;5028238;28;20117;-71
2023/05/05 02:40:04;;;;;;;8.10;5.63;;;13.80;99.90;;;;;;5026585;28;20292;-71
2023/05/05 02:42:40;;;;;;;10.10;6.68;;;13.70;99.90;;;;;;5025457;28;20026;-71
2023/05/05 02:45:16;;;;;;;11.35;6.38;;;13.70;99.90;;;;;;5031545;28;20753;-72
2023/05/05 02:47:41;;;;;;;9.95;5.75;;;13.70;99.90;;;;;;5029599;28;20022;-71
2023/05/05 02:50:08;;;;;;;10.25;6.57;;;13.80;99.90;;;;;;5026676;28;20021;-71
2023/05/05 02:52:34;;;;;;;9.20;5.95;;;13.80;99.90;;;;;;5027032;28;20029;-71
2023/05/05 02:55:01;;;;;;;8.98;6.05;;;13.80;99.90;;;;;;5026557;28;20388;-71
2023/05/05 02:57:56;;;;;;;11.05;5.55;;;13.80;99.90;;;;;;5028976;28;20038;-71
2023/05/05 03:00:25;;;;;;;10.75;5.75;;;13.80;99.90;;;;;;5026143;28;20037;-71
2023/05/05 03:02:59;;;;;;;9.85;6.13;;;13.80;99.90;;;;;;5023576;28;20034;-71
2023/05/05 03:05:28;;;;;;;8.18;6.35;;;13.90;99.90;;;;;;5018381;28;20040;-71
2023/05/05 03:08:09;;;;;;;12.32;6.60;;;13.90;99.90;;;;;;5018782;28;20498;-72
2023/05/05 03:10:57;;;;;;;7.72;5.90;;;14.00;99.90;;;;;;5021933;28;20021;-71
2023/05/05 03:13:25;;;;;;;7.63;4.93;;;13.90;99.90;;;;;;5023711;28;20416;-72
2023/05/05 03:15:53;;;;;;;20.55;5.95;;;14.00;99.90;;;;;;5024557;28;20116;-71
2023/05/05 03:18:21;;;;;;;10.48;5.80;;;14.00;99.90;;;;;;5021493;28;20041;-72
2023/05/05 03:20:47;;;;;;;11.43;5.68;;;13.90;99.90;;;;;;5019758;28;20109;-71
2023/05/05 03:23:13;;;;;;;7.40;5.28;;;13.90;99.90;;;;;;5018897;28;20029;-71
2023/05/05 03:25:46;;;;;;;8.93;5.13;;;13.80;99.90;;;;;;5025166;28;20055;-71
2023/05/05 03:28:14;;;;;;;7.03;4.88;;;13.80;99.90;;;;;;5026429;28;20728;-71
2023/05/05 03:30:40;;;;;;;8.23;5.07;;;13.90;99.90;;;;;;5024424;28;20037;-71
2023/05/05 03:33:06;;;;;;;7.45;5.85;;;14.10;99.90;;;;;;5023726;28;20801;-71
2023/05/05 03:35:32;;;;;;;8.18;5.70;;;14.30;99.90;;;;;;5023243;28;20037;-72
2023/05/05 03:37:58;;;;;;;10.43;5.50;;;14.40;99.90;;;;;;5025486;28;20416;-71
2023/05/05 03:40:24;;;;;;;10.38;5.57;;;14.50;99.90;;;;;;5024612;28;20028;-71
2023/05/05 03:42:50;;;;;;;8.35;5.93;;;14.30;99.90;;;;;;5023210;28;20192;-71
2023/05/05 03:45:15;;;;;;;7.68;5.35;;;14.20;99.90;;;;;;5019020;28;20049;-71
2023/05/05 03:47:41;;;;;;;13.32;5.35;;;14.10;99.90;;;;;;5024647;28;20041;-71
2023/05/05 03:50:07;;;;;;;7.78;4.80;;;14.30;99.90;;;;;;5020327;28;20391;-72
2023/05/05 03:52:33;;;;;;;10.30;5.88;;;14.20;99.90;;;;;;5022204;28;20030;-72
2023/05/05 03:54:59;;;;;;;10.98;6.07;;;14.20;99.90;;;;;;5021876;28;20368;-71
2023/05/05 03:57:25;;;;;;;8.00;5.50;;;14.30;99.90;;;;;;5022500;28;20518;-71
2023/05/05 03:59:51;;;;;;;10.05;5.63;;;14.10;99.90;;;;;;5017432;28;20033;-72
2023/05/05 04:02:17;;;;;;;7.95;5.55;;;14.10;99.90;;;;;;5018498;28;20022;-72
2023/05/05 04:04:43;;;;;;;7.78;5.85;;;14.10;99.90;;;;;;5022183;28;20036;-72
2023/05/05 04:07:10;;;;;;;8.63;5.78;;;14.20;99.90;;;;;;5023023;28;20018;-71
2023/05/05 04:09:36;;;;;;;8.35;6.00;;;14.10;99.90;;;;;;5018413;28;20561;-71
2023/05/05 04:12:02;;;;;;;7.07;5.35;;;14.20;99.90;;;;;;5017014;28;20036;-71
2023/05/05 04:14:27;;;;;;;8.02;5.57;;;14.20;99.90;;;;;;5016299;28;20103;-71
2023/05/05 04:16:53;;;;;;;7.88;5.60;;;14.10;99.90;;;;;;5021824;28;20101;-71
2023/05/05 04:19:19;;;;;;;11.50;6.13;;;14.10;99.90;;;;;;5023737;28;20037;-71
2023/05/05 04:21:44;;;;;;;8.75;5.82;;;14.00;99.90;;;;;;5022368;28;20555;-72
2023/05/05 04:24:10;;;;;;;8.40;5.13;;;13.90;99.90;;;;;;5019217;28;20120;-71
2023/05/05 04:26:36;;;;;;;8.70;5.25;;;13.90;99.90;;;;;;5020550;28;20078;-72
2023/05/05 04:29:01;;;;;;;10.50;6.25;;;14.00;99.90;;;;;;5021655;28;20025;-72
2023/05/05 04:31:27;;;;;;;8.63;5.95;;;13.90;99.90;;;;;;5020653;28;20464;-72
2023/05/05 04:33:53;;;;;;;8.52;5.90;;;13.90;99.90;;;;;;5019659;28;20033;-72
2023/05/05 04:36:18;;;;;;;8.35;5.85;;;13.90;99.90;;;;;;5024164;28;20029;-71
2023/05/05 04:38:44;;;;;;;8.82;6.28;;;14.00;99.90;;;;;;5020227;28;20052;-71
2023/05/05 04:41:10;;;;;;;9.52;6.22;;;14.00;99.90;;;;;;5021021;28;20167;-72
2023/05/05 04:43:36;;;;;;;7.10;5.38;;;14.10;99.90;;;;;;5015405;28;20029;-71
2023/05/05 04:46:02;;;;;;;6.80;4.72;;;14.10;99.90;;;;;;5021854;28;20124;-71
2023/05/05 04:48:27;;;;;;;8.75;5.78;;;13.80;99.90;;;;;;5021738;28;20029;-72
2023/05/05 04:50:53;;;;;;;8.57;6.18;;;13.60;99.90;;;;;;5017170;28;20060;-72
2023/05/05 04:53:19;;;;;;;8.32;5.78;;;13.60;99.90;;;;;;5017128;28;20041;-72
2023/05/05 04:55:44;;;;;;;11.85;6.82;;;13.60;99.90;;;;;;5023189;28;20033;-72
2023/05/05 04:58:10;;;;;;;12.98;6.75;;;13.60;99.90;;;;;;5022209;28;20056;-71
2023/05/05 05:00:36;;;;;;;9.75;6.38;;;13.60;99.90;;;;;;5023115;28;20131;-72
2023/05/05 05:03:03;;;;;;;10.40;6.78;;;13.70;99.90;;;;;;5021650;28;20029;-71
2023/05/05 05:05:28;;;;;;;10.23;6.30;;;13.80;99.90;;;;;;5019998;28;20033;-72
2023/05/05 05:07:54;;;;;;;13.55;7.32;;;13.90;99.90;;;;;;5021947;28;20033;-72
2023/05/05 05:10:20;;;;;;;8.75;6.88;;;14.10;99.90;;;;;;5021596;28;20396;-71
2023/05/05 05:12:47;;;;;;;11.35;6.93;;;14.10;99.90;;;;;;5019843;28;20456;-73
2023/05/05 05:15:13;;;;;;;8.45;6.30;;;14.10;99.90;;;;;;5019666;28;20118;-71
2023/05/05 05:17:39;;;;;;;7.95;6.15;;;14.10;99.90;;;;;;5015416;28;21180;-72
2023/05/05 05:20:06;;;;;;;10.77;6.90;;;13.80;99.90;;;;;;5019281;28;20036;-71
2023/05/05 05:22:31;;;;;;;9.93;5.97;;;13.80;99.90;;;;;;5022455;28;20029;-71
2023/05/05 05:24:57;;;;;;;8.70;6.07;;;13.80;99.90;;;;;;5025297;28;20030;-71
2023/05/05 05:27:23;;;;;;;11.00;6.20;;;13.90;99.90;;;;;;5020066;28;20033;-70
2023/05/05 05:29:48;;;;;;;9.52;6.85;;;13.90;99.90;;;;;;5024126;28;20033;-71
2023/05/05 05:32:14;;;;;;;11.23;6.22;;;13.90;99.90;;;;;;5025034;28;20116;-71
2023/05/05 05:34:40;;;;;;;9.95;7.07;;;14.00;99.90;;;;;;5020964;28;20025;-71
2023/05/05 05:37:05;;;;;;;8.60;6.82;;;14.00;99.90;;;;;;5021342;28;20506;-71
2023/05/05 05:39:31;;;;;;;9.40;6.35;;;14.20;99.90;;;;;;5021932;28;20099;-72
2023/05/05 05:41:57;;;;;;;12.77;6.97;;;14.30;99.90;;;;;;5024930;28;20021;-71
2023/05/05 05:44:22;;;;;;;10.10;6.20;;;14.30;99.90;;;;;;5022858;28;20041;-71
2023/05/05 05:46:48;;;;;;;9.05;6.10;;;14.20;99.90;;;;;;5024502;28;20046;-72
2023/05/05 05:49:15;;;;;;;10.43;6.00;;;14.10;99.90;;;;;;5018751;28;20041;-71
2023/05/05 05:51:40;;;;;;;12.57;5.65;;;14.10;99.90;;;;;;5023833;28;20108;-71
2023/05/05 05:54:06;;;;;;;8.75;5.68;;;14.30;99.90;;;;;;5023449;28;20156;-71
2023/05/05 05:56:32;;;;;;;7.40;5.90;;;14.30;99.90;;;;;;5024376;28;20033;-71
2023/05/05 05:58:57;;;;;;;8.38;5.72;;;14.40;99.90;;;;;;5023392;28;20025;-73
2023/05/05 06:01:23;;;;;;;10.82;6.20;;;14.30;99.90;;;;;;5016046;28;20450;-73
2023/05/05 06:03:48;;;;;;;10.98;6.72;;;14.50;99.90;;;;;;5016546;28;20456;-73
2023/05/05 06:06:14;;;;;;;11.75;6.50;;;14.70;99.90;;;;;;5017763;28;20037;-72
2023/05/05 06:08:40;;;;;;;8.07;6.03;;;14.90;99.90;;;;;;5022461;28;20052;-72
2023/05/05 06:11:06;;;;;;;9.93;6.00;;;15.10;99.90;;;;;;5014981;28;20029;-73
2023/05/05 06:13:32;;;;;;;9.65;5.57;;;15.20;99.90;;;;;;5014751;28;20372;-74
2023/05/05 06:15:58;;;;;;;9.00;6.07;;;15.40;99.90;;;;;;5017768;28;20454;-74
2023/05/05 06:18:24;;;;;;;7.43;5.07;;;15.50;99.90;;;;;;5019878;28;20077;-74
2023/05/05 06:20:51;;;;;;;8.52;5.68;;;15.70;99.90;;;;;;5019941;28;20051;-76
2023/05/05 06:23:17;;;;;;;10.07;4.78;;;15.80;99.90;;;;;;5015572;28;20048;-74
2023/05/05 06:25:42;;;;;;;7.70;5.13;;;16.00;99.90;;;;;;5016721;28;20026;-74
2023/05/05 06:28:08;;;;;;;9.40;5.45;;;16.10;99.90;;;;;;5014681;28;20041;-74
2023/05/05 06:30:33;;;;;;;9.55;4.80;;;16.30;99.90;;;;;;5022908;28;20029;-75
2023/05/05 06:32:59;;;;;;;10.98;5.30;;;16.50;99.90;;;;;;5014952;28;20033;-73
2023/05/05 06:35:25;;;;;;;9.40;5.60;;;16.50;99.90;;;;;;5013963;28;20033;-74
2023/05/05 06:37:50;;;;;;;8.50;5.45;;;16.40;99.90;;;;;;5023346;28;20040;-76
2023/05/05 06:40:16;;;;;;;11.02;6.30;;;16.60;99.90;;;;;;5017171;28;20040;-73
2023/05/05 06:42:42;;;;;;;10.43;6.45;;;16.70;99.90;;;;;;5013657;28;20588;-73
2023/05/05 06:45:08;;;;;;;8.52;6.50;;;16.70;99.90;;;;;;5017152;28;20042;-74
2023/05/05 06:47:33;;;;;;;8.32;5.78;;;16.90;99.90;;;;;;5015126;28;20029;-73
2023/05/05 06:49:59;;;;;;;8.35;5.13;;;17.00;99.90;;;;;;5008939;28;20396;-74
2023/05/05 06:52:25;;;;;;;7.85;5.60;;;17.20;99.90;;;;;;5013184;28;20484;-73
2023/05/05 06:54:51;;;;;;;6.97;5.53;;;17.40;99.90;;;;;;5018384;28;20033;-73
2023/05/05 06:57:16;;;;;;;7.93;5.97;;;17.50;99.90;;;;;;5015570;28;20491;-73
2023/05/05 06:59:42;;;;;;;63.58;10.50;;;17.50;99.90;;;;;;5013827;28;20030;-74
2023/05/05 07:02:07;;;;;;;11.98;5.18;;;17.90;99.90;;;;;;5016977;28;20075;-74
2023/05/05 07:04:33;;;;;;;9.75;5.63;;;18.10;99.90;;;;;;5011723;28;20036;-74
2023/05/05 07:06:59;;;;;;;8.98;5.18;;;18.60;99.90;;;;;;5017287;28;20025;-74
2023/05/05 07:09:24;;;;;;;7.70;4.70;;;19.50;99.30;;;;;;5018363;28;20112;-75
2023/05/05 07:11:50;;;;;;;7.18;4.68;;;20.30;98.50;;;;;;5017977;28;20033;-74
2023/05/05 07:14:16;;;;;;;8.88;5.15;;;21.40;96.10;;;;;;5008655;28;20037;-74
2023/05/05 07:16:41;;;;;;;9.65;4.93;;;22.60;94.40;;;;;;5016711;28;20033;-75
2023/05/05 07:19:07;;;;;;;6.43;4.88;;;23.30;93.70;;;;;;5016483;28;20037;-75
2023/05/05 07:21:33;;;;;;;7.10;5.25;;;23.70;92.20;;;;;;5021497;28;20025;-74
2023/05/05 07:23:59;;;;;;;6.90;4.65;;;24.50;91.50;;;;;;5023179;28;20065;-74
2023/05/05 07:26:25;;;;;;;7.93;5.10;;;24.40;91.20;;;;;;5023467;28;20033;-75
2023/05/05 07:28:51;;;;;;;13.73;5.72;;;24.30;91.20;;;;;;5020093;28;20029;-75
2023/05/05 07:31:20;;;;;;;8.30;4.78;;;24.50;91.20;;;;;;5017956;28;20029;-75
2023/05/05 07:33:46;;;;;;;7.30;4.82;;;24.80;91.30;;;;;;5019852;28;20022;-75
2023/05/05 07:36:12;;;;;;;6.30;4.93;;;24.90;91.40;;;;;;5021653;28;20053;-75
2023/05/05 07:38:38;;;;;;;6.07;4.60;;;25.40;90.90;;;;;;5019243;28;20674;-75
2023/05/05 07:41:03;;;;;;;7.03;4.25;;;25.10;91.00;;;;;;5018002;28;20029;-76
2023/05/05 07:43:29;;;;;;;6.65;4.75;;;24.70;90.90;;;;;;5019199;28;20017;-75
2023/05/05 07:45:55;;;;;;;9.65;5.55;;;25.70;90.60;;;;;;5018964;28;20055;-75
2023/05/05 07:48:20;;;;;;;5.93;4.80;;;24.00;91.20;;;;;;5022281;28;20022;-76
2023/05/05 07:50:46;;;;;;;8.73;4.80;;;21.90;93.10;;;;;;5022412;28;20095;-76
2023/05/05 07:53:12;;;;;;;7.70;5.15;;;20.50;95.10;;;;;;5019054;28;20107;-75
2023/05/05 07:55:38;;;;;;;9.15;5.10;;;19.60;96.20;;;;;;5021149;28;20025;-76
2023/05/05 07:58:04;;;;;;;6.90;5.03;;;19.20;97.00;;;;;;5019687;28;20094;-75
2023/05/05 08:00:29;;;;;;;10.50;5.10;;;18.90;96.90;;;;;;5021586;28;20041;-76
2023/05/05 08:02:55;;;;;;;7.18;5.45;;;18.90;96.90;;;;;;5017761;28;20495;-75
2023/05/05 08:05:20;;;;;;;7.68;4.28;;;18.90;97.20;;;;;;5019435;28;20090;-75
2023/05/05 08:07:46;;;;;;;8.02;5.10;;;18.80;97.70;;;;;;5019631;28;20025;-75
2023/05/05 08:10:12;;;;;;;7.10;4.43;;;18.90;97.60;;;;;;5014508;28;20573;-75
2023/05/05 08:12:38;;;;;;;9.90;4.72;;;19.00;97.80;;;;;;5016322;28;20034;-75
2023/05/05 08:15:04;;;;;;;5.55;4.00;;;19.90;96.80;;;;;;5018273;28;20068;-75
2023/05/05 08:17:46;;;;;;;5.88;4.40;;;21.50;94.40;;;;;;5019151;28;20046;-76
2023/05/05 08:20:12;;;;;;;8.13;4.45;;;22.20;92.90;;;;;;5016509;28;20526;-75
2023/05/05 08:22:37;;;;;;;10.90;4.45;;;22.50;92.80;;;;;;5019600;28;20029;-76
2023/05/05 08:25:03;;;;;;;8.70;4.82;;;23.30;92.90;;;;;;5020660;28;20450;-75
2023/05/05 08:27:30;;;;;;;6.07;4.40;;;23.90;92.20;;;;;;5020130;28;20034;-75
2023/05/05 08:29:57;;;;;;;7.68;4.70;;;24.20;92.30;;;;;;5022048;28;20116;-73
2023/05/05 08:32:22;;;;;;;6.85;4.53;;;23.90;92.80;;;;;;5019563;28;20022;-74
2023/05/05 08:34:48;;;;;;;8.45;4.40;;;23.00;93.10;;;;;;5019339;28;20029;-74
2023/05/05 08:37:13;;;;;;;6.05;4.20;;;22.80;93.10;;;;;;5020027;28;20041;-73
2023/05/05 08:39:39;;;;;;;5.88;3.97;;;22.30;93.80;;;;;;5021856;28;20036;-73
2023/05/05 08:42:05;;;;;;;6.93;4.63;;;21.60;94.90;;;;;;5019540;28;20104;-76
2023/05/05 08:44:32;;;;;;;7.35;4.78;;;21.30;96.00;;;;;;5021338;28;20036;-76
2023/05/05 08:46:59;;;;;;;7.95;4.55;;;20.60;95.30;;;;;;5020210;28;20125;-76
2023/05/05 08:49:30;;;;;;;8.15;4.50;;;20.50;96.60;;;;;;5021030;28;20108;-75
2023/05/05 08:52:00;;;;;;;6.28;4.15;;;20.80;96.00;;;;;;5019455;28;20037;-75
2023/05/05 08:54:30;;;;;;;7.85;4.85;;;20.40;95.40;;;;;;5018669;28;20018;-75
2023/05/05 08:57:00;;;;;;;11.98;5.25;;;20.60;96.30;;;;;;5016048;28;20124;-76
2023/05/05 08:59:29;;;;;;;10.20;5.22;;;20.70;95.20;;;;;;5022719;28;20033;-75
2023/05/05 09:01:57;;;;;;;9.25;4.80;;;20.40;95.30;;;;;;5020278;28;20472;-75
2023/05/05 09:04:23;;;;;;;9.93;5.10;;;20.50;95.70;;;;;;5016407;28;20108;-75
2023/05/05 09:06:49;;;;;;;7.57;4.85;;;20.70;95.10;;;;;;5021647;28;20112;-74
2023/05/05 09:09:15;;;;;;;6.72;5.57;;;20.80;94.80;;;;;;5017328;28;20030;-75
2023/05/05 09:11:43;;;;;;;7.75;4.85;;;20.70;95.10;;;;;;5015637;28;20072;-75
2023/05/05 09:14:09;;;;;;;7.53;4.82;;;21.10;95.10;;;;;;5021053;28;20037;-74
2023/05/05 09:16:34;;;;;;;14.77;4.50;;;21.40;94.60;;;;;;5015692;28;20048;-74
2023/05/05 09:19:04;;;;;;;7.85;4.93;;;21.60;94.50;;;;;;5020395;28;20048;-74
2023/05/05 09:21:30;;;;;;;6.38;5.32;;;21.70;94.70;;;;;;5020131;28;20026;-74
2023/05/05 09:24:14;;;;;;;10.43;4.60;;;21.70;94.40;;;;;;5022017;28;20025;-74
2023/05/05 09:26:45;;;;;;;7.55;4.72;;;21.40;94.00;;;;;;5019181;28;20025;-74
2023/05/05 09:29:21;;;;;;;8.45;4.82;;;21.80;93.90;;;;;;5017618;28;20088;-75
2023/05/05 09:32:09;;;;;;;7.28;4.30;;;21.80;94.00;;;;;;5022147;28;20038;-75
2023/05/05 09:34:36;;;;;;;6.25;4.53;;;21.60;93.80;;;;;;5017776;28;20025;-75
2023/05/05 09:37:02;;;;;;;9.15;5.68;;;21.90;94.30;;;;;;5021423;28;20049;-74
2023/05/05 09:39:27;;;;;;;8.50;5.38;;;22.00;94.30;;;;;;5025001;28;20029;-75
2023/05/05 09:41:53;;;;;;;8.98;5.13;;;22.00;94.90;;;;;;5024130;28;20047;-75
2023/05/05 09:44:33;;;;;;;7.95;5.55;;;22.00;95.10;;;;;;5025115;28;20480;-76
2023/05/05 09:46:59;;;;;;;6.70;4.32;;;21.80;94.70;;;;;;5026016;28;20556;-75
2023/05/05 09:49:28;;;;;;;6.55;4.35;;;21.90;95.70;;;;;;5023826;28;20041;-76
2023/05/05 09:51:54;;;;;;;5.53;3.85;;;22.00;95.00;;;;;;5024457;28;20053;-74
2023/05/05 09:54:28;;;;;;;8.07;4.03;;;22.40;93.70;;;;;;5021746;28;20029;-75
2023/05/05 09:56:55;;;;;;;9.32;3.95;;;22.50;93.60;;;;;;5021140;28;20685;-75
2023/05/05 09:59:21;;;;;;;5.20;3.65;;;22.60;93.90;;;;;;5023647;28;20109;-77
2023/05/05 10:01:48;;;;;;;8.52;4.00;;;22.70;92.60;;;;;;5024766;28;20025;-74
2023/05/05 10:04:28;;;;;;;7.38;3.70;;;22.60;93.40;;;;;;5023736;28;20025;-75
2023/05/05 10:06:55;;;;;;;6.68;4.20;;;22.70;94.10;;;;;;5019531;28;20099;-75
2023/05/05 10:09:22;;;;;;;5.68;3.97;;;22.90;94.00;;;;;;5022471;28;20033;-75
2023/05/05 10:11:48;;;;;;;6.85;4.18;;;22.90;93.10;;;;;;5016061;28;20068;-76
2023/05/05 10:14:16;;;;;;;7.38;4.70;;;22.90;93.80;;;;;;5019058;28;20040;-76
2023/05/05 10:16:47;;;;;;;5.90;3.72;;;22.30;92.40;;;;;;5018143;28;20033;-75
2023/05/05 10:19:15;;;;;;;8.40;4.78;;;22.70;94.70;;;;;;5017410;28;20460;-75
2023/05/05 10:21:58;;;;;;;5.20;3.55;;;22.90;93.90;;;;;;5020459;28;20033;-74
2023/05/05 10:24:37;;;;;;;6.80;3.72;;;22.90;92.80;;;;;;5022542;28;20067;-78
2023/05/05 10:27:13;;;;;;;6.47;3.75;;;22.80;92.90;;;;;;5018149;28;20030;-75
2023/05/05 10:29:51;;;;;;;5.88;3.30;;;23.00;93.90;;;;;;5017154;28;20029;-75
2023/05/05 10:32:27;;;;;;;10.05;3.58;;;23.30;93.50;;;;;;5022507;28;20498;-75
2023/05/05 10:34:58;;;;;;;6.38;3.15;;;23.50;93.70;;;;;;5022567;28;20135;-75
2023/05/05 10:37:24;;;;;;;4.50;3.00;;;23.70;93.10;;;;;;5020247;28;20402;-75
2023/05/05 10:39:51;;;;;;;6.32;2.85;;;23.70;93.10;;;;;;5024373;28;20422;-77
2023/05/05 10:42:19;;;;;;;5.07;2.92;;;23.80;92.90;;;;;;5022294;28;20045;-75
2023/05/05 10:44:47;;;;;;;4.82;2.80;;;24.10;92.50;;;;;;5021937;28;20029;-74
2023/05/05 10:47:13;;;;;;;5.47;2.75;;;24.00;91.20;;;;;;5022601;28;20130;-74
2023/05/05 10:49:48;;;;;;;4.30;2.58;;;24.20;92.30;;;;;;5021109;28;20125;-74
2023/05/05 10:52:56;;;;;;;9.15;3.00;;;24.10;91.00;;;;;;5020945;28;20049;-74
2023/05/05 10:55:39;;;;;;;5.88;2.35;;;24.10;91.60;;;;;;5018789;28;20064;-75
2023/05/05 10:58:05;;;;;;;7.63;3.53;;;24.10;91.90;;;;;;5020701;28;20053;-75
2023/05/05 11:00:40;;;;;;;3.70;2.60;;;24.10;91.30;;;;;;5022932;28;20306;-75
2023/05/05 11:03:18;;;;;;;4.32;2.88;;;24.30;92.10;;;;;;5021601;28;20072;-75
2023/05/05 11:06:08;;;;;;;4.80;2.80;;;24.70;92.50;;;;;;5022845;28;20029;-74
2023/05/05 11:08:36;;;;;;;5.10;2.85;;;24.70;91.30;;;;;;5023988;28;20029;-75
2023/05/05 11:11:02;;;;;;;4.22;2.75;;;24.90;91.60;;;;;;5023476;28;20045;-74
2023/05/05 11:13:28;;;;;;;5.13;3.15;;;25.20;90.80;;;;;;5024846;28;20141;-74
2023/05/05 11:15:55;;;;;;;5.38;2.55;;;25.00;90.80;;;;;;5027459;28;20105;-75
2023/05/05 11:18:35;;;;;;;7.72;2.50;;;25.20;91.20;;;;;;5019187;28;20418;-74
2023/05/05 11:21:13;;;;;;;4.78;2.92;;;25.00;90.80;;;;;;5025523;28;20037;-75
2023/05/05 11:23:43;;;;;;;7.57;2.50;;;25.20;91.30;;;;;;5025345;28;20064;-74
2023/05/05 11:26:10;;;;;;;6.03;3.15;;;25.20;90.60;;;;;;5026605;28;20108;-73
2023/05/05 11:28:55;;;;;;;4.03;2.60;;;25.20;90.50;;;;;;5025961;28;20059;-74
2023/05/05 11:31:21;;;;;;;4.55;2.55;;;25.30;90.80;;;;;;5023623;28;20088;-75
2023/05/05 11:33:47;;;;;;;7.95;3.22;;;25.10;91.10;;;;;;5025027;28;20505;-75
2023/05/05 11:36:17;;;;;;;3.78;2.17;;;25.20;90.00;;;;;;5026529;28;20033;-74
2023/05/05 11:39:14;;;;;;;6.43;2.83;;;25.20;89.00;;;;;;5025343;28;20167;-74
2023/05/05 11:42:09;;;;;;;4.85;2.58;;;25.20;89.40;;;;;;5023273;28;20049;-75
2023/05/05 11:44:35;;;;;;;6.45;3.30;;;25.20;89.10;;;;;;5021804;28;20051;-74
2023/05/05 11:47:03;;;;;;;7.20;2.78;;;25.50;91.00;;;;;;5023353;28;20057;-74
2023/05/05 11:49:34;;;;;;;5.05;2.60;;;25.50;90.50;;;;;;5020451;28;20038;-74
2023/05/05 11:52:11;;;;;;;5.57;2.20;;;25.50;90.50;;;;;;5023592;28;20365;-73
2023/05/05 11:54:49;;;;;;;6.18;2.67;;;25.70;90.30;;;;;;5019998;28;20026;-73
2023/05/05 11:57:25;;;;;;;5.20;2.90;;;25.40;90.10;;;;;;5020343;28;20146;-74
2023/05/05 11:59:55;;;;;;;5.00;2.40;;;25.60;91.80;;;;;;5020158;28;20034;-75
2023/05/05 12:02:22;;;;;;;10.35;2.90;;;25.80;90.70;;;;;;5017022;28;20025;-74
2023/05/05 12:04:49;;;;;;;9.27;2.63;;;25.80;90.40;;;;;;5021892;28;20033;-74
2023/05/05 12:07:20;;;;;;;4.93;2.47;;;25.80;90.40;;;;;;5022891;28;20570;-74
2023/05/05 12:09:47;;;;;;;4.25;2.17;;;26.10;89.40;;;;;;5018519;28;20026;-74
2023/05/05 12:12:13;;;;;;;6.65;2.47;;;26.00;89.70;;;;;;5020184;28;20037;-74
2023/05/05 12:14:50;;;;;;;6.07;2.45;;;26.20;90.50;;;;;;5021515;28;20594;-74
2023/05/05 12:17:17;;;;;;;4.13;2.63;;;26.00;89.20;;;;;;5020278;28;20551;-74
2023/05/05 12:19:48;;;;;;;4.95;2.40;;;26.40;89.80;;;;;;5017510;28;20034;-75
2023/05/05 12:22:24;;;;;;;14.18;3.20;;;26.40;89.70;;;;;;5016086;28;20037;-74
2023/05/05 12:24:54;;;;;;;7.35;2.50;;;26.10;88.10;;;;;;5020326;28;20490;-74
2023/05/05 12:27:20;;;;;;;4.15;2.40;;;26.40;88.90;;;;;;5021034;28;20357;-74
2023/05/05 12:29:45;;;;;;;9.32;2.45;;;26.30;88.20;;;;;;5014220;28;20590;-74
2023/05/05 12:32:26;;;;;;;5.75;2.20;;;26.20;89.10;;;;;;5016079;28;20726;-74
2023/05/05 12:34:55;;;;;;;6.07;2.63;;;25.90;88.80;;;;;;5015594;28;20065;-74
2023/05/05 12:37:21;;;;;;;4.38;2.95;;;26.20;90.10;;;;;;5020382;28;20034;-76
2023/05/05 12:39:48;;;;;;;5.90;2.72;;;26.20;90.00;;;;;;5019439;28;20026;-74
2023/05/05 12:42:14;;;;;;;6.18;3.10;;;26.00;89.00;;;;;;5024878;28;20029;-74
2023/05/05 12:44:43;;;;;;;4.50;2.88;;;26.00;90.90;;;;;;5020314;28;20030;-74
2023/05/05 12:47:10;;;;;;;4.47;2.95;;;25.90;90.00;;;;;;5025108;28;20125;-73
2023/05/05 12:49:50;;;;;;;6.57;3.05;;;25.90;90.40;;;;;;5007075;28;20122;-74
2023/05/05 12:52:16;;;;;;;6.70;3.22;;;26.20;90.50;;;;;;5004869;28;20092;-75
2023/05/05 12:54:55;;;;;;;5.03;3.10;;;26.00;90.60;;;;;;5010651;28;20104;-73